Time;durP1;ratioP1;P1;durP2;ratioP2;P2;SDS_P1;SDS_P2;PMS_P1;PMS_P2;Temp;Humidity;BMP_temperature;BMP_pressure;BME280_temperature;BME280_humidity;BME280_pressure;Samples;Min_cycle;Max_cycle;Signal;HPM_P1;HPM_P2
2021/08/19 00:01:39;;;;;;;10.25;7.03;;;20.60;85.20;;;;;;5055693;28;20426;-74
2021/08/19 00:04:06;;;;;;;10.25;7.10;;;20.50;85.40;;;;;;5056861;28;20056;-73
2021/08/19 00:06:32;;;;;;;9.65;7.00;;;20.50;85.60;;;;;;5056462;28;20027;-74
2021/08/19 00:08:58;;;;;;;7.40;5.72;;;20.60;85.80;;;;;;5056719;28;20445;-73
2021/08/19 00:11:24;;;;;;;10.45;6.60;;;20.60;85.80;;;;;;5055529;28;20029;-73
2021/08/19 00:13:50;;;;;;;8.70;6.30;;;20.50;85.70;;;;;;5055305;28;20029;-73
2021/08/19 00:16:15;;;;;;;11.30;6.43;;;20.60;85.80;;;;;;5056400;28;20351;-73
2021/08/19 00:18:41;;;;;;;8.38;6.47;;;20.60;85.80;;;;;;5055266;28;20032;-74
2021/08/19 00:21:08;;;;;;;8.48;6.10;;;20.60;85.80;;;;;;5055667;28;20063;-73
2021/08/19 00:23:35;;;;;;;9.43;6.03;;;20.60;85.80;;;;;;5056357;28;20020;-73
2021/08/19 00:26:01;;;;;;;8.32;6.15;;;20.60;85.70;;;;;;5056356;28;20017;-73
2021/08/19 00:28:27;;;;;;;8.98;5.68;;;20.60;85.50;;;;;;5054889;28;20055;-73
2021/08/19 00:30:52;;;;;;;8.32;6.07;;;20.60;85.40;;;;;;5055324;28;20048;-73
2021/08/19 00:33:18;;;;;;;9.02;6.03;;;20.50;85.00;;;;;;5054688;28;20459;-73
2021/08/19 00:35:44;;;;;;;7.88;5.63;;;20.60;84.90;;;;;;5055865;28;20518;-73
2021/08/19 00:38:09;;;;;;;8.90;6.03;;;20.50;84.70;;;;;;5055894;28;20029;-73
2021/08/19 00:40:35;;;;;;;8.02;5.97;;;20.50;84.80;;;;;;5055877;28;20104;-73
2021/08/19 00:43:05;;;;;;;8.13;5.53;;;20.50;84.80;;;;;;5055083;28;20021;-74
2021/08/19 00:45:35;;;;;;;8.65;5.88;;;20.50;85.40;;;;;;5054803;28;20082;-73
2021/08/19 00:48:00;;;;;;;8.60;5.55;;;20.50;84.70;;;;;;5054413;28;20024;-73
2021/08/19 00:50:27;;;;;;;8.93;5.97;;;20.50;84.60;;;;;;5055434;28;20352;-73
2021/08/19 00:52:53;;;;;;;9.77;5.60;;;20.50;84.50;;;;;;5054531;28;20106;-73
2021/08/19 00:55:19;;;;;;;8.23;5.88;;;20.50;84.30;;;;;;5054774;28;20079;-73
2021/08/19 00:57:45;;;;;;;8.70;5.75;;;20.50;84.40;;;;;;5054554;28;20074;-73
2021/08/19 01:00:13;;;;;;;10.02;6.05;;;20.50;84.60;;;;;;5054348;28;20102;-73
2021/08/19 01:02:46;;;;;;;9.82;6.50;;;20.50;84.70;;;;;;5054365;28;20023;-73
2021/08/19 01:05:14;;;;;;;8.15;6.00;;;20.50;84.70;;;;;;5054407;28;20032;-73
2021/08/19 01:07:40;;;;;;;8.82;6.20;;;20.50;84.70;;;;;;5054020;28;20045;-73
2021/08/19 01:10:06;;;;;;;14.15;6.75;;;20.50;84.80;;;;;;5055466;28;20020;-74
2021/08/19 01:12:33;;;;;;;10.07;6.80;;;20.50;84.90;;;;;;5055876;28;20025;-73
2021/08/19 01:14:59;;;;;;;11.38;6.65;;;20.50;84.90;;;;;;5055375;28;20101;-74
2021/08/19 01:17:28;;;;;;;9.80;6.63;;;20.40;84.90;;;;;;5054350;28;20045;-73
2021/08/19 01:19:54;;;;;;;8.65;6.47;;;20.40;85.00;;;;;;5054749;28;20025;-73
2021/08/19 01:22:20;;;;;;;9.30;6.25;;;20.40;85.00;;;;;;5054537;28;20479;-73
2021/08/19 01:24:46;;;;;;;8.52;6.22;;;20.40;85.00;;;;;;5054092;28;20463;-73
2021/08/19 01:27:16;;;;;;;8.48;6.20;;;20.40;84.50;;;;;;5055125;28;20063;-73
2021/08/19 01:29:44;;;;;;;7.38;5.63;;;20.40;84.40;;;;;;5053868;28;20017;-73
2021/08/19 01:32:10;;;;;;;8.10;5.30;;;20.30;83.90;;;;;;5052719;28;20079;-74
2021/08/19 01:34:37;;;;;;;7.75;5.15;;;20.30;83.50;;;;;;5055205;28;20025;-73
2021/08/19 01:37:04;;;;;;;8.88;5.20;;;20.30;83.30;;;;;;5053648;28;20032;-74
2021/08/19 01:39:30;;;;;;;7.20;5.03;;;20.30;82.80;;;;;;5053602;28;20112;-74
2021/08/19 01:41:55;;;;;;;7.00;5.03;;;20.30;82.40;;;;;;5053688;28;20467;-73
2021/08/19 01:44:21;;;;;;;7.75;4.85;;;20.30;82.00;;;;;;5053484;28;20020;-73
2021/08/19 01:46:59;;;;;;;7.57;5.30;;;20.30;81.90;;;;;;5053437;28;20029;-74
2021/08/19 01:49:35;;;;;;;7.45;4.97;;;20.20;81.90;;;;;;5053468;28;20367;-73
2021/08/19 01:52:11;;;;;;;8.48;5.15;;;20.20;81.90;;;;;;5053626;28;20021;-74
2021/08/19 01:54:36;;;;;;;8.20;5.25;;;20.10;81.90;;;;;;5054474;28;20024;-73
2021/08/19 01:57:02;;;;;;;9.40;4.97;;;20.10;82.20;;;;;;5053337;28;20021;-73
2021/08/19 01:59:29;;;;;;;8.35;4.93;;;20.10;82.20;;;;;;5053288;28;20155;-74
2021/08/19 02:01:55;;;;;;;8.95;5.45;;;20.10;82.00;;;;;;5053241;28;20024;-73
2021/08/19 02:04:21;;;;;;;8.88;5.00;;;20.20;82.20;;;;;;5054417;28;20513;-73
2021/08/19 02:06:47;;;;;;;10.32;5.30;;;20.10;82.30;;;;;;5052873;28;20108;-74
2021/08/19 02:09:12;;;;;;;8.93;4.97;;;20.10;82.60;;;;;;5053101;28;20027;-73
2021/08/19 02:11:39;;;;;;;6.90;4.65;;;20.10;82.90;;;;;;5052712;28;20104;-74
2021/08/19 02:14:07;;;;;;;7.80;5.47;;;20.10;83.10;;;;;;5054208;28;20028;-74
2021/08/19 02:16:33;;;;;;;9.10;5.50;;;20.10;83.30;;;;;;5052789;28;20029;-73
2021/08/19 02:18:59;;;;;;;8.30;5.05;;;20.10;83.80;;;;;;5052793;28;20095;-73
2021/08/19 02:21:24;;;;;;;9.32;5.68;;;20.10;84.00;;;;;;5054125;28;20451;-74
2021/08/19 02:23:50;;;;;;;12.00;6.47;;;20.10;84.20;;;;;;5053945;28;20032;-74
2021/08/19 02:26:16;;;;;;;9.50;5.63;;;20.10;84.50;;;;;;5052538;28;20374;-73
2021/08/19 02:28:41;;;;;;;9.38;5.78;;;20.10;84.80;;;;;;5052663;28;20021;-73
2021/08/19 02:31:07;;;;;;;10.50;5.50;;;20.10;85.20;;;;;;5052791;28;20055;-73
2021/08/19 02:33:33;;;;;;;8.73;5.80;;;20.10;85.50;;;;;;5052752;28;20046;-73
2021/08/19 02:35:59;;;;;;;9.52;5.57;;;20.10;85.70;;;;;;5052549;28;20419;-74
2021/08/19 02:38:24;;;;;;;8.02;5.20;;;20.10;86.00;;;;;;5052388;28;20025;-72
2021/08/19 02:40:50;;;;;;;7.80;5.43;;;20.10;86.10;;;;;;5053837;28;20053;-72
2021/08/19 02:43:16;;;;;;;11.85;5.90;;;20.10;85.80;;;;;;5053766;28;20439;-72
2021/08/19 02:45:41;;;;;;;7.95;5.28;;;20.20;85.70;;;;;;5053620;28;20017;-73
2021/08/19 02:48:07;;;;;;;7.75;5.50;;;20.20;85.70;;;;;;5053730;28;20025;-73
2021/08/19 02:50:33;;;;;;;8.45;6.30;;;20.20;85.60;;;;;;5054072;28;20099;-73
2021/08/19 02:52:58;;;;;;;9.00;6.18;;;20.20;85.40;;;;;;5052698;28;20455;-72
2021/08/19 02:55:25;;;;;;;10.07;6.30;;;20.20;85.30;;;;;;5053771;28;20025;-72
2021/08/19 02:57:51;;;;;;;8.90;6.53;;;20.20;85.40;;;;;;5052385;28;20021;-72
2021/08/19 03:00:16;;;;;;;8.65;6.00;;;20.20;85.60;;;;;;5052725;28;20371;-73
2021/08/19 03:02:42;;;;;;;9.32;6.47;;;20.20;85.70;;;;;;5052268;28;20119;-73
2021/08/19 03:05:09;;;;;;;10.65;8.15;;;20.20;86.10;;;;;;5052100;28;20095;-72
2021/08/19 03:07:34;;;;;;;9.45;6.82;;;20.20;86.50;;;;;;5051921;28;20127;-74
2021/08/19 03:10:02;;;;;;;9.07;7.32;;;20.10;86.90;;;;;;5052235;28;20048;-74
2021/08/19 03:12:28;;;;;;;9.68;7.20;;;20.10;87.50;;;;;;5052220;28;20060;-73
2021/08/19 03:14:54;;;;;;;12.23;8.38;;;20.00;87.90;;;;;;5052196;28;20067;-73
2021/08/19 03:17:20;;;;;;;10.40;7.40;;;19.90;88.30;;;;;;5052068;28;20024;-73
2021/08/19 03:19:46;;;;;;;8.70;7.15;;;19.90;89.00;;;;;;5052039;28;20021;-73
2021/08/19 03:22:14;;;;;;;10.02;7.30;;;19.80;89.60;;;;;;5053335;28;20032;-73
2021/08/19 03:24:41;;;;;;;10.70;6.63;;;19.80;90.00;;;;;;5052416;28;20397;-73
2021/08/19 03:27:07;;;;;;;10.15;6.28;;;19.70;90.10;;;;;;5052070;28;20052;-73
2021/08/19 03:29:34;;;;;;;8.50;5.97;;;19.80;90.00;;;;;;5039386;28;20088;-74
2021/08/19 03:32:00;;;;;;;9.15;6.30;;;19.80;89.80;;;;;;5016669;28;20116;-73
2021/08/19 03:34:26;;;;;;;9.15;6.30;;;19.70;89.60;;;;;;5023502;28;20120;-80
2021/08/19 03:36:54;;;;;;;10.35;6.82;;;19.80;89.60;;;;;;5032028;28;20033;-87
2021/08/19 03:39:20;;;;;;;9.95;6.70;;;19.70;89.40;;;;;;5033280;28;20418;-87
2021/08/19 03:41:46;;;;;;;10.25;6.75;;;19.70;89.50;;;;;;5044896;28;20404;-85
2021/08/19 03:44:15;;;;;;;11.60;6.80;;;19.70;89.70;;;;;;5027229;28;20064;-73
2021/08/19 03:46:41;;;;;;;13.27;6.90;;;19.70;89.80;;;;;;5012329;28;20018;-77
2021/08/19 03:49:08;;;;;;;9.48;7.00;;;19.60;90.20;;;;;;5029567;28;20053;-74
2021/08/19 03:51:34;;;;;;;11.40;7.57;;;19.50;90.60;;;;;;5031906;28;20024;-72
2021/08/19 03:53:59;;;;;;;12.88;7.80;;;19.50;91.10;;;;;;5031428;28;20037;-78
2021/08/19 03:56:28;;;;;;;11.20;7.05;;;19.40;91.70;;;;;;5035764;28;20021;-74
2021/08/19 03:58:57;;;;;;;10.75;7.15;;;19.30;91.70;;;;;;5034236;28;20531;-75
2021/08/19 04:01:24;;;;;;;10.35;7.47;;;19.20;91.80;;;;;;5035441;28;20036;-83
2021/08/19 04:03:50;;;;;;;10.50;7.15;;;19.10;92.00;;;;;;5036823;28;20029;-72
2021/08/19 04:06:17;;;;;;;9.18;6.57;;;19.10;92.10;;;;;;5037349;28;20058;-81
2021/08/19 04:08:43;;;;;;;8.63;6.05;;;19.00;92.10;;;;;;5038277;28;20091;-81
2021/08/19 04:11:10;;;;;;;7.60;5.93;;;18.90;92.00;;;;;;5039823;28;20029;-79
2021/08/19 04:13:39;;;;;;;9.82;6.30;;;18.90;92.00;;;;;;5041593;28;20117;-77
2021/08/19 04:16:05;;;;;;;10.90;6.35;;;18.90;92.00;;;;;;5059711;28;20021;-79
2021/08/19 04:18:31;;;;;;;8.55;5.70;;;18.90;92.00;;;;;;5053384;28;20097;-81
2021/08/19 04:20:57;;;;;;;8.70;6.40;;;18.90;92.00;;;;;;5057676;28;20010;-81
2021/08/19 04:23:22;;;;;;;8.45;5.95;;;18.90;91.90;;;;;;5044163;28;20033;-85
2021/08/19 04:25:49;;;;;;;8.02;5.60;;;18.90;91.90;;;;;;5052475;28;20025;-85
2021/08/19 04:28:15;;;;;;;10.23;6.47;;;18.90;91.80;;;;;;5060652;28;20025;-85
2021/08/19 04:30:41;;;;;;;11.05;6.78;;;18.90;91.90;;;;;;5037731;28;20355;-79
2021/08/19 04:33:06;;;;;;;11.20;6.18;;;18.90;91.90;;;;;;5037930;28;20022;-78
2021/08/19 04:35:33;;;;;;;10.48;6.95;;;18.90;91.90;;;;;;5037227;28;20117;-77
2021/08/19 04:37:59;;;;;;;9.85;6.50;;;19.00;92.00;;;;;;5037569;28;20021;-79
2021/08/19 04:40:25;;;;;;;8.63;6.13;;;19.00;92.10;;;;;;5036157;28;20806;-80
2021/08/19 04:42:51;;;;;;;9.45;6.70;;;19.00;91.90;;;;;;5038371;28;20089;-80
2021/08/19 04:45:16;;;;;;;10.95;6.80;;;19.00;91.90;;;;;;5050585;28;20102;-80
2021/08/19 04:47:42;;;;;;;8.95;6.15;;;19.00;92.00;;;;;;5034887;28;20372;-79
2021/08/19 04:50:08;;;;;;;10.85;8.10;;;19.10;92.10;;;;;;5035810;28;20029;-79
2021/08/19 04:52:34;;;;;;;9.30;6.30;;;19.10;92.00;;;;;;5034956;28;20029;-79
2021/08/19 04:55:02;;;;;;;9.80;6.60;;;19.10;91.70;;;;;;5034814;28;20037;-79
2021/08/19 04:57:27;;;;;;;7.53;5.22;;;19.10;91.60;;;;;;5043967;28;20410;-79
2021/08/19 04:59:53;;;;;;;7.88;5.22;;;19.20;91.70;;;;;;5053517;28;20025;-78
2021/08/19 05:02:19;;;;;;;8.45;5.95;;;19.20;91.40;;;;;;5052371;28;20049;-77
2021/08/19 05:04:44;;;;;;;11.57;5.50;;;19.30;91.10;;;;;;5052735;28;20086;-78
2021/08/19 05:07:10;;;;;;;8.48;5.68;;;19.30;91.00;;;;;;5054372;28;20079;-78
2021/08/19 05:09:36;;;;;;;10.32;5.80;;;19.40;90.80;;;;;;5055667;28;20024;-79
2021/08/19 05:12:02;;;;;;;8.20;5.43;;;19.50;90.40;;;;;;5056786;28;20040;-79
2021/08/19 05:14:27;;;;;;;9.38;5.38;;;19.50;90.20;;;;;;5053886;28;20028;-79
2021/08/19 05:16:53;;;;;;;7.88;5.10;;;19.50;89.70;;;;;;5056979;28;20159;-79
2021/08/19 05:19:19;;;;;;;8.32;5.10;;;19.50;88.90;;;;;;5056272;28;20025;-80
2021/08/19 05:21:44;;;;;;;8.18;5.45;;;19.50;88.70;;;;;;5057841;28;20028;-79
2021/08/19 05:24:10;;;;;;;8.63;4.93;;;19.40;88.40;;;;;;5061828;28;20025;-79
2021/08/19 05:26:37;;;;;;;7.68;5.35;;;19.30;88.10;;;;;;5059423;28;20021;-80
2021/08/19 05:29:03;;;;;;;8.57;5.32;;;19.30;88.40;;;;;;5060646;28;20024;-79
2021/08/19 05:31:29;;;;;;;9.48;5.63;;;19.30;88.50;;;;;;5058685;28;20017;-79
2021/08/19 05:33:55;;;;;;;8.77;5.90;;;19.30;88.60;;;;;;5063362;28;20362;-79
2021/08/19 05:36:21;;;;;;;6.68;4.88;;;19.30;88.80;;;;;;5057761;28;20080;-79
2021/08/19 05:38:47;;;;;;;9.45;5.75;;;19.30;88.70;;;;;;5057517;28;20025;-79
2021/08/19 05:41:13;;;;;;;8.35;5.20;;;19.30;88.50;;;;;;5056177;28;20017;-79
2021/08/19 05:43:38;;;;;;;10.55;5.78;;;19.40;88.40;;;;;;5054943;28;20104;-79
2021/08/19 05:46:07;;;;;;;7.30;5.03;;;19.40;88.20;;;;;;5053593;28;20088;-79
2021/08/19 05:48:32;;;;;;;7.07;5.03;;;19.50;87.80;;;;;;5053819;28;20029;-80
2021/08/19 05:50:58;;;;;;;8.38;4.60;;;19.50;87.60;;;;;;5054039;28;20162;-79
2021/08/19 05:53:24;;;;;;;7.80;5.43;;;19.60;87.50;;;;;;5054027;28;20478;-80
2021/08/19 05:55:49;;;;;;;7.20;5.13;;;19.60;87.10;;;;;;5057333;28;20460;-81
2021/08/19 05:58:15;;;;;;;11.82;5.15;;;19.70;86.70;;;;;;5065687;28;20025;-76
2021/08/19 06:00:46;;;;;;;7.57;4.90;;;19.70;86.30;;;;;;5065791;28;20025;-75
2021/08/19 06:03:12;;;;;;;8.05;4.72;;;19.70;85.90;;;;;;5045864;28;20494;-79
2021/08/19 06:05:38;;;;;;;8.43;5.13;;;19.80;85.80;;;;;;5035004;28;20022;-80
2021/08/19 06:08:04;;;;;;;8.35;5.20;;;19.80;85.30;;;;;;5032695;28;20375;-82
2021/08/19 06:10:29;;;;;;;8.05;4.80;;;19.90;84.90;;;;;;5032577;28;20022;-75
2021/08/19 06:12:55;;;;;;;8.35;5.03;;;19.90;84.60;;;;;;5032502;28;20379;-76
2021/08/19 06:15:21;;;;;;;8.65;5.10;;;19.90;84.40;;;;;;5032427;28;20064;-75
2021/08/19 06:17:47;;;;;;;9.20;5.10;;;19.90;84.20;;;;;;5031779;28;20021;-77
2021/08/19 06:20:12;;;;;;;9.15;4.70;;;19.90;83.60;;;;;;5032771;28;20029;-77
2021/08/19 06:22:38;;;;;;;7.97;5.00;;;20.00;83.60;;;;;;5032648;28;20049;-77
2021/08/19 06:25:04;;;;;;;7.00;4.90;;;20.10;84.00;;;;;;5034232;28;20021;-76
2021/08/19 06:27:30;;;;;;;8.13;5.10;;;20.20;83.60;;;;;;5032811;28;20422;-75
2021/08/19 06:29:56;;;;;;;12.27;5.10;;;20.40;83.20;;;;;;5032801;28;20029;-77
2021/08/19 06:32:21;;;;;;;7.30;5.05;;;20.60;82.50;;;;;;5032760;28;20026;-77
2021/08/19 06:34:47;;;;;;;8.73;4.90;;;20.80;81.70;;;;;;5030978;28;20087;-79
2021/08/19 06:37:13;;;;;;;9.35;5.22;;;20.90;81.00;;;;;;5031487;28;20025;-77
2021/08/19 06:39:39;;;;;;;9.07;5.28;;;21.00;80.30;;;;;;5031468;28;20102;-77
2021/08/19 06:42:04;;;;;;;7.63;4.93;;;20.90;79.80;;;;;;5031564;28;20059;-76
2021/08/19 06:44:30;;;;;;;8.32;5.50;;;21.00;79.90;;;;;;5031453;28;20025;-76
2021/08/19 06:46:56;;;;;;;7.90;5.10;;;21.00;79.70;;;;;;5031598;28;20025;-76
2021/08/19 06:49:21;;;;;;;9.05;5.45;;;21.00;79.40;;;;;;5032160;28;20095;-75
2021/08/19 06:51:47;;;;;;;7.10;5.07;;;20.80;79.10;;;;;;5032812;28;20029;-76
2021/08/19 06:54:13;;;;;;;8.60;5.10;;;20.70;79.00;;;;;;5032329;28;20029;-76
2021/08/19 06:56:38;;;;;;;9.60;5.70;;;20.50;79.10;;;;;;5032271;28;20021;-75
2021/08/19 06:59:04;;;;;;;8.77;5.65;;;20.30;79.20;;;;;;5032139;28;20375;-76
2021/08/19 07:01:30;;;;;;;7.00;5.25;;;20.20;80.00;;;;;;5032551;28;20025;-75
2021/08/19 07:03:56;;;;;;;7.15;5.28;;;20.00;79.60;;;;;;5032556;28;20087;-75
2021/08/19 07:06:22;;;;;;;9.18;5.50;;;19.80;79.90;;;;;;5033081;28;20021;-75
2021/08/19 07:08:47;;;;;;;8.27;5.45;;;19.70;80.90;;;;;;5032486;28;20376;-76
2021/08/19 07:11:13;;;;;;;9.20;5.32;;;19.60;80.70;;;;;;5033536;28;20032;-76
2021/08/19 07:13:39;;;;;;;8.98;5.78;;;19.40;81.00;;;;;;5032460;28;20080;-77
2021/08/19 07:16:06;;;;;;;9.30;5.75;;;19.30;81.50;;;;;;5034287;28;20037;-77
2021/08/19 07:18:32;;;;;;;8.20;5.13;;;19.30;81.80;;;;;;5033608;28;20473;-76
2021/08/19 07:20:57;;;;;;;9.77;5.65;;;19.20;82.10;;;;;;5034112;28;20026;-78
2021/08/19 07:23:24;;;;;;;10.55;6.10;;;19.10;82.20;;;;;;5035580;28;20463;-77
2021/08/19 07:25:49;;;;;;;7.72;5.60;;;19.10;82.50;;;;;;5033210;28;20021;-77
2021/08/19 07:28:15;;;;;;;8.38;5.25;;;19.00;82.50;;;;;;5038627;28;20026;-75
2021/08/19 07:30:41;;;;;;;9.27;5.43;;;19.00;82.70;;;;;;5049928;28;20026;-75
2021/08/19 07:33:06;;;;;;;8.30;5.25;;;19.00;82.90;;;;;;5053518;28;20030;-77
2021/08/19 07:35:33;;;;;;;10.75;5.55;;;19.00;83.00;;;;;;5049660;28;20022;-77
2021/08/19 07:37:59;;;;;;;8.95;6.10;;;18.90;83.10;;;;;;5038145;28;20112;-76
2021/08/19 07:40:28;;;;;;;11.40;6.00;;;18.90;83.50;;;;;;5035875;28;20582;-77
2021/08/19 07:42:54;;;;;;;9.40;5.80;;;18.90;83.70;;;;;;5035811;28;20017;-76
2021/08/19 07:45:24;;;;;;;8.75;5.55;;;18.90;83.90;;;;;;5036172;28;20032;-76
2021/08/19 07:47:51;;;;;;;10.35;6.10;;;19.00;84.00;;;;;;5035959;28;20475;-77
2021/08/19 07:50:18;;;;;;;10.70;5.82;;;19.00;84.30;;;;;;5035267;28;20483;-76
2021/08/19 07:52:43;;;;;;;9.10;5.70;;;19.00;84.20;;;;;;5037087;28;20018;-76
2021/08/19 07:55:11;;;;;;;10.65;5.65;;;19.00;84.40;;;;;;5035609;28;20036;-76
2021/08/19 07:57:40;;;;;;;9.30;5.57;;;19.10;84.60;;;;;;5035822;28;20035;-77
2021/08/19 08:00:07;;;;;;;8.13;4.78;;;19.10;84.50;;;;;;5035783;28;20083;-77
2021/08/19 08:02:32;;;;;;;9.25;5.22;;;19.10;84.50;;;;;;5035478;28;20022;-77
2021/08/19 08:04:58;;;;;;;8.13;5.07;;;19.20;84.50;;;;;;5036656;28;20052;-77
2021/08/19 08:07:24;;;;;;;8.90;5.13;;;19.20;84.50;;;;;;5035593;28;20053;-77
2021/08/19 08:09:50;;;;;;;7.95;5.05;;;19.30;84.20;;;;;;5035352;28;20021;-78
2021/08/19 08:12:15;;;;;;;7.70;4.55;;;19.30;84.00;;;;;;5036646;28;20025;-78
2021/08/19 08:14:41;;;;;;;6.57;4.50;;;19.40;83.80;;;;;;5037122;28;20021;-77
2021/08/19 08:17:07;;;;;;;7.70;4.60;;;19.50;83.30;;;;;;5035336;28;20030;-77
2021/08/19 08:19:32;;;;;;;7.82;4.45;;;19.50;83.10;;;;;;5035301;28;20021;-77
2021/08/19 08:21:58;;;;;;;7.60;4.05;;;19.60;82.70;;;;;;5035061;28;20021;-77
2021/08/19 08:24:24;;;;;;;5.53;3.65;;;19.70;82.40;;;;;;5035313;28;20029;-80
2021/08/19 08:26:49;;;;;;;7.93;4.70;;;19.70;82.10;;;;;;5036006;28;20397;-77
2021/08/19 08:29:15;;;;;;;7.22;4.50;;;19.80;81.90;;;;;;5035101;28;20033;-77
2021/08/19 08:31:41;;;;;;;8.48;5.85;;;19.80;81.90;;;;;;5035092;28;20026;-76
2021/08/19 08:34:07;;;;;;;6.65;4.30;;;19.80;81.90;;;;;;5035081;28;20029;-78
2021/08/19 08:36:32;;;;;;;7.53;4.80;;;19.70;81.90;;;;;;5036130;28;20368;-78
2021/08/19 08:38:58;;;;;;;6.40;4.40;;;19.70;82.30;;;;;;5034947;28;20086;-77
2021/08/19 08:41:24;;;;;;;6.95;4.18;;;19.60;82.30;;;;;;5035685;28;20021;-78
2021/08/19 08:43:52;;;;;;;7.10;4.50;;;19.50;82.20;;;;;;5034846;28;20079;-77
2021/08/19 08:46:18;;;;;;;7.22;4.78;;;19.40;82.30;;;;;;5034932;28;20088;-77
2021/08/19 08:48:45;;;;;;;7.00;4.28;;;19.40;82.40;;;;;;5036588;28;20037;-77
2021/08/19 08:51:11;;;;;;;7.72;4.30;;;19.30;82.50;;;;;;5036587;28;20304;-78
2021/08/19 08:53:37;;;;;;;8.07;4.90;;;19.30;82.80;;;;;;5036372;28;20103;-78
2021/08/19 08:56:03;;;;;;;10.30;4.80;;;19.30;83.60;;;;;;5035754;28;20447;-77
2021/08/19 08:58:28;;;;;;;10.18;5.10;;;19.30;84.40;;;;;;5037061;28;20056;-77
2021/08/19 09:00:54;;;;;;;11.20;5.32;;;19.20;84.30;;;;;;5036362;28;20044;-77
2021/08/19 09:03:22;;;;;;;10.30;5.35;;;19.20;84.50;;;;;;5045869;28;20029;-77
2021/08/19 09:05:52;;;;;;;7.47;4.88;;;19.10;85.00;;;;;;5049883;28;20029;-77
2021/08/19 09:08:24;;;;;;;9.20;5.10;;;19.00;85.60;;;;;;5052153;28;20064;-78
2021/08/19 09:10:53;;;;;;;9.13;5.63;;;19.00;86.30;;;;;;5046924;28;20021;-78
2021/08/19 09:13:23;;;;;;;8.52;5.15;;;19.00;87.40;;;;;;5038973;28;20064;-77
2021/08/19 09:15:50;;;;;;;10.57;6.57;;;18.90;88.10;;;;;;5037178;28;20029;-77
2021/08/19 09:18:33;;;;;;;7.85;5.38;;;18.80;88.20;;;;;;5035651;28;20028;-78
2021/08/19 09:21:00;;;;;;;8.85;5.40;;;18.80;88.40;;;;;;5034463;28;20345;-77
2021/08/19 09:23:26;;;;;;;8.68;5.22;;;18.80;89.30;;;;;;5034712;28;20124;-77
2021/08/19 09:25:51;;;;;;;10.70;5.65;;;18.70;90.00;;;;;;5034385;28;20022;-77
2021/08/19 09:28:26;;;;;;;7.90;5.10;;;18.70;90.20;;;;;;5034486;28;20367;-78
2021/08/19 09:30:53;;;;;;;10.43;5.35;;;18.70;90.30;;;;;;5034127;28;20120;-78
2021/08/19 09:33:27;;;;;;;9.00;5.60;;;18.80;90.40;;;;;;5033879;28;20032;-78
2021/08/19 09:36:02;;;;;;;8.10;5.40;;;18.80;90.60;;;;;;5035191;28;20036;-77
2021/08/19 09:38:39;;;;;;;8.45;5.63;;;18.90;90.40;;;;;;5035549;28;20017;-77
2021/08/19 09:41:12;;;;;;;9.70;5.65;;;18.90;90.30;;;;;;5034348;28;20045;-77
2021/08/19 09:43:43;;;;;;;9.05;5.80;;;19.00;90.60;;;;;;5034916;28;20052;-77
2021/08/19 09:46:10;;;;;;;8.40;5.25;;;19.00;90.40;;;;;;5033821;28;20018;-77
2021/08/19 09:48:36;;;;;;;9.20;5.25;;;19.10;90.30;;;;;;5033903;28;20176;-77
2021/08/19 09:51:22;;;;;;;6.72;5.10;;;19.10;90.10;;;;;;5033925;28;20064;-77
2021/08/19 09:53:57;;;;;;;7.10;5.13;;;19.30;90.00;;;;;;5033859;28;20116;-77
2021/08/19 09:56:27;;;;;;;8.02;4.70;;;19.30;89.90;;;;;;5034759;28;20102;-77
2021/08/19 09:58:53;;;;;;;8.15;4.70;;;19.40;89.90;;;;;;5034137;28;20176;-77
2021/08/19 10:01:19;;;;;;;8.05;5.43;;;19.50;89.60;;;;;;5033763;28;20355;-77
2021/08/19 10:03:45;;;;;;;7.47;4.82;;;19.60;89.50;;;;;;5033608;28;20079;-77
2021/08/19 10:06:11;;;;;;;8.55;4.90;;;19.60;88.80;;;;;;5034692;28;20025;-77
2021/08/19 10:08:36;;;;;;;7.90;5.30;;;19.70;88.90;;;;;;5034914;28;20041;-77
2021/08/19 10:11:03;;;;;;;9.05;5.57;;;19.70;89.20;;;;;;5033417;28;20052;-77
2021/08/19 10:13:31;;;;;;;8.88;6.32;;;19.70;89.60;;;;;;5034628;28;20022;-77
2021/08/19 10:15:58;;;;;;;8.75;5.50;;;19.70;89.50;;;;;;5033293;28;20475;-77
2021/08/19 10:18:28;;;;;;;10.52;6.07;;;19.60;89.70;;;;;;5034478;28;20018;-77
2021/08/19 10:20:59;;;;;;;8.77;5.50;;;19.70;90.30;;;;;;5033649;28;20407;-77
2021/08/19 10:23:26;;;;;;;9.05;5.90;;;19.70;90.00;;;;;;5033244;28;20083;-77
2021/08/19 10:26:23;;;;;;;9.00;5.60;;;19.70;90.00;;;;;;5034494;28;20025;-76
2021/08/19 10:28:56;;;;;;;8.10;5.53;;;19.80;90.00;;;;;;5030348;28;20036;-77
2021/08/19 10:31:45;;;;;;;9.27;5.80;;;19.80;90.10;;;;;;5034685;28;20025;-76
2021/08/19 10:34:19;;;;;;;8.90;6.00;;;19.70;90.10;;;;;;5033242;28;20104;-76
2021/08/19 10:36:50;;;;;;;10.20;5.90;;;19.70;90.20;;;;;;5033871;28;20029;-77
2021/08/19 10:39:18;;;;;;;11.00;6.50;;;19.70;90.10;;;;;;5043329;28;20083;-77
2021/08/19 10:41:45;;;;;;;8.55;5.63;;;19.70;90.10;;;;;;5038386;28;20021;-76
2021/08/19 10:44:12;;;;;;;9.30;6.45;;;19.70;90.30;;;;;;5041734;28;20029;-76
2021/08/19 10:46:41;;;;;;;8.70;5.47;;;19.70;90.20;;;;;;5044677;28;20045;-77
2021/08/19 10:49:07;;;;;;;9.90;6.00;;;19.70;90.20;;;;;;5033407;28;20025;-78
2021/08/19 10:51:33;;;;;;;8.48;5.55;;;19.70;90.40;;;;;;5032568;28;20167;-77
2021/08/19 10:54:00;;;;;;;9.82;6.22;;;19.70;90.50;;;;;;5032522;28;20110;-77
2021/08/19 10:56:44;;;;;;;9.85;6.68;;;19.80;90.60;;;;;;5032365;28;20029;-79
2021/08/19 10:59:31;;;;;;;10.30;6.20;;;19.80;90.50;;;;;;5033158;28;20391;-79
2021/08/19 11:01:57;;;;;;;10.48;6.60;;;19.70;90.50;;;;;;5032398;28;20375;-79
2021/08/19 11:04:40;;;;;;;9.05;6.65;;;19.60;90.60;;;;;;5032426;28;20415;-78
2021/08/19 11:07:07;;;;;;;10.00;5.85;;;19.60;90.60;;;;;;5033546;28;20076;-79
2021/08/19 11:09:33;;;;;;;10.93;6.72;;;19.50;90.80;;;;;;5032292;28;20014;-79
2021/08/19 11:12:04;;;;;;;9.82;6.85;;;19.50;91.10;;;;;;5032794;28;20017;-78
2021/08/19 11:14:30;;;;;;;12.18;7.22;;;19.60;90.90;;;;;;5033697;28;20364;-78
2021/08/19 11:16:58;;;;;;;8.98;6.10;;;19.50;91.00;;;;;;5032415;28;20029;-78
2021/08/19 11:19:30;;;;;;;9.20;6.85;;;19.50;91.10;;;;;;5033682;28;20365;-78
2021/08/19 11:21:58;;;;;;;12.15;6.97;;;19.50;91.30;;;;;;5032162;28;20025;-78
2021/08/19 11:24:25;;;;;;;9.88;6.38;;;19.40;91.10;;;;;;5032306;28;20037;-78
2021/08/19 11:26:58;;;;;;;11.52;6.90;;;19.40;91.20;;;;;;5033420;28;20367;-79
2021/08/19 11:29:31;;;;;;;11.82;6.55;;;19.40;91.20;;;;;;5032127;28;20028;-79
2021/08/19 11:32:05;;;;;;;11.18;6.68;;;19.30;91.40;;;;;;5033460;28;20021;-80
2021/08/19 11:34:31;;;;;;;10.85;7.28;;;19.20;91.80;;;;;;5032034;28;20030;-79
2021/08/19 11:36:57;;;;;;;11.18;6.70;;;19.20;92.00;;;;;;5032113;28;20072;-78
2021/08/19 11:39:27;;;;;;;9.75;6.65;;;19.20;92.10;;;;;;5032112;28;20522;-78
2021/08/19 11:42:03;;;;;;;9.18;6.78;;;19.20;92.30;;;;;;5031987;28;20025;-78
2021/08/19 11:44:29;;;;;;;9.07;6.70;;;19.20;92.30;;;;;;5033278;28;20124;-79
2021/08/19 11:47:02;;;;;;;9.80;6.00;;;19.20;92.50;;;;;;5032028;28;20112;-79
2021/08/19 11:49:28;;;;;;;9.23;6.13;;;19.20;92.20;;;;;;5033228;28;20025;-79
2021/08/19 11:52:03;;;;;;;9.25;5.75;;;19.30;92.00;;;;;;5033287;28;20017;-79
2021/08/19 11:54:40;;;;;;;11.70;6.47;;;19.40;91.90;;;;;;5031945;28;20473;-78
2021/08/19 11:57:06;;;;;;;7.28;5.50;;;19.60;91.70;;;;;;5031993;28;20029;-79
2021/08/19 11:59:32;;;;;;;7.07;5.00;;;19.80;91.20;;;;;;5032488;28;20383;-78
2021/08/19 12:01:58;;;;;;;9.07;5.80;;;20.00;90.70;;;;;;5033094;28;20026;-78
2021/08/19 12:04:28;;;;;;;6.55;4.80;;;20.30;90.70;;;;;;5032691;28;20431;-79
2021/08/19 12:06:58;;;;;;;9.70;5.72;;;20.60;89.70;;;;;;5033356;28;20029;-79
2021/08/19 12:09:26;;;;;;;9.05;4.97;;;21.10;90.00;;;;;;5032260;28;20022;-77
2021/08/19 12:11:52;;;;;;;7.72;4.63;;;21.70;87.70;;;;;;5067501;28;20032;-70
2021/08/19 12:14:27;;;;;;;8.07;5.28;;;22.20;85.10;;;;;;5065037;28;20045;-70
2021/08/19 12:16:55;;;;;;;6.50;4.72;;;22.60;82.90;;;;;;5067438;28;20490;-71
2021/08/19 12:19:23;;;;;;;5.55;4.05;;;22.90;82.20;;;;;;5036181;28;20056;-70
2021/08/19 12:21:52;;;;;;;7.43;4.68;;;23.30;79.80;;;;;;5036007;28;20341;-71
2021/08/19 12:24:29;;;;;;;10.70;5.10;;;23.50;79.10;;;;;;5035739;28;20033;-71
2021/08/19 12:27:16;;;;;;;6.78;4.25;;;23.70;78.00;;;;;;5033673;28;20407;-71
2021/08/19 12:29:47;;;;;;;5.53;3.70;;;23.80;76.20;;;;;;5034563;28;20072;-71
2021/08/19 12:32:34;;;;;;;6.68;3.92;;;23.80;75.00;;;;;;5035521;28;20017;-72
2021/08/19 12:35:12;;;;;;;6.70;3.72;;;24.00;74.30;;;;;;5033306;28;20028;-69
2021/08/19 12:37:40;;;;;;;6.00;3.88;;;24.00;73.50;;;;;;5032386;28;20030;-72
2021/08/19 12:40:14;;;;;;;5.30;3.47;;;24.00;73.50;;;;;;5058087;28;20068;-71
2021/08/19 12:42:41;;;;;;;5.25;3.60;;;24.00;72.90;;;;;;5026622;28;20094;-72
2021/08/19 12:45:15;;;;;;;5.70;3.42;;;24.00;72.20;;;;;;5025445;28;20033;-71
2021/08/19 12:47:44;;;;;;;6.73;3.73;;;23.90;71.80;;;;;;5026773;28;20048;-71